createdAt,value
2022-12-09T00:01:22.769Z,-3.19
2022-12-09T00:03:50.913Z,-3.15
2022-12-09T00:06:27.231Z,-3.17
2022-12-09T00:08:56.227Z,-3.15
2022-12-09T00:11:25.277Z,-3.17
2022-12-09T00:13:55.211Z,-3.15
2022-12-09T00:16:23.664Z,-3.17
2022-12-09T00:18:52.402Z,-3.16
2022-12-09T00:21:27.039Z,-3.16
2022-12-09T00:23:56.663Z,-3.13
2022-12-09T00:26:25.949Z,-3.09
2022-12-09T00:28:54.339Z,-3.05
2022-12-09T00:31:25.365Z,-2.99
2022-12-09T00:33:56.446Z,-2.99
2022-12-09T00:36:24.745Z,-2.93
2022-12-09T00:38:53.735Z,-2.88
2022-12-09T00:41:21.187Z,-2.86
2022-12-09T00:43:48.484Z,-2.82
2022-12-09T00:46:16.639Z,-2.76
2022-12-09T00:48:46.032Z,-2.73
2022-12-09T00:51:20.435Z,-2.70
2022-12-09T00:53:48.330Z,-2.64
2022-12-09T00:56:15.424Z,-2.61
2022-12-09T00:58:42.985Z,-2.61
2022-12-09T01:01:09.913Z,-2.54
2022-12-09T01:03:36.857Z,-2.53
2022-12-09T01:06:13.794Z,-2.56
2022-12-09T01:08:42.912Z,-2.55
2022-12-09T01:11:19.863Z,-2.53
2022-12-09T01:13:48.493Z,-2.51
2022-12-09T01:16:27.400Z,-2.53
2022-12-09T01:18:57.550Z,-2.55
2022-12-09T01:21:25.064Z,-2.55
2022-12-09T01:23:52.592Z,-2.52
2022-12-09T01:26:20.013Z,-2.55
2022-12-09T01:28:47.315Z,-2.52
2022-12-09T01:31:20.076Z,-2.51
2022-12-09T01:33:48.101Z,-2.49
2022-12-09T01:36:19.171Z,-2.52
2022-12-09T01:38:47.469Z,-2.56
2022-12-09T01:41:16.567Z,-2.60
2022-12-09T01:43:45.298Z,-2.63
2022-12-09T01:46:12.472Z,-2.67
2022-12-09T01:48:45.387Z,-2.71
2022-12-09T01:51:18.943Z,-2.76
2022-12-09T01:53:50.323Z,-2.79
2022-12-09T01:56:30.397Z,-2.84
2022-12-09T01:59:04.208Z,-2.84
2022-12-09T02:01:32.124Z,-2.89
2022-12-09T02:04:00.005Z,-2.94
2022-12-09T02:06:27.462Z,-2.99
2022-12-09T02:08:55.328Z,-3.05
2022-12-09T02:12:04.225Z,-3.11
2022-12-09T02:14:42.992Z,-3.15
2022-12-09T02:17:36.807Z,-3.19
2022-12-09T02:20:28.466Z,-3.18
2022-12-09T02:23:17.066Z,-3.19
2022-12-09T02:25:49.814Z,-3.16
2022-12-09T02:28:50.493Z,-3.15
2022-12-09T02:31:24.243Z,-3.10
2022-12-09T02:34:27.497Z,-3.08
2022-12-09T02:37:10.462Z,-3.03
2022-12-09T02:39:45.758Z,-2.99
2022-12-09T02:42:17.538Z,-2.98
2022-12-09T02:44:48.900Z,-3.02
2022-12-09T02:47:19.601Z,-3.07
2022-12-09T02:49:51.942Z,-3.11
2022-12-09T02:52:20.463Z,-3.16
2022-12-09T02:54:48.257Z,-3.22
2022-12-09T02:57:23.363Z,-3.28
2022-12-09T02:59:50.122Z,-3.36
2022-12-09T03:02:37.987Z,-3.42
2022-12-09T03:05:22.149Z,-3.48
2022-12-09T03:08:17.994Z,-3.53
2022-12-09T03:10:57.209Z,-3.60
2022-12-09T03:13:52.409Z,-3.68
2022-12-09T03:16:44.695Z,-3.73
2022-12-09T03:19:17.449Z,-3.78
2022-12-09T03:21:47.356Z,-3.83
2022-12-09T03:24:20.115Z,-3.88
2022-12-09T03:26:49.143Z,-3.93
2022-12-09T03:29:21.944Z,-3.97
2022-12-09T03:31:51.652Z,-4.00
2022-12-09T03:34:25.721Z,-4.04
2022-12-09T03:36:53.803Z,-4.07
2022-12-09T03:39:28.018Z,-4.10
2022-12-09T03:41:59.005Z,-4.16
2022-12-09T03:44:45.779Z,-4.21
2022-12-09T03:47:12.965Z,-4.22
2022-12-09T03:49:40.560Z,-4.25
2022-12-09T03:52:25.877Z,-4.30
2022-12-09T03:55:08.237Z,-4.33
2022-12-09T03:57:38.612Z,-4.35
2022-12-09T04:00:07.288Z,-4.38
2022-12-09T04:02:35.207Z,-4.43
2022-12-09T04:05:02.348Z,-4.45
2022-12-09T04:07:29.579Z,-4.47
2022-12-09T04:09:56.656Z,-4.52
2022-12-09T04:12:23.655Z,-4.53
2022-12-09T04:14:50.704Z,-4.56
2022-12-09T04:17:18.027Z,-4.58
2022-12-09T04:19:45.087Z,-4.62
2022-12-09T04:22:12.100Z,-4.63
2022-12-09T04:24:38.957Z,-4.64
2022-12-09T04:27:05.906Z,-4.66
2022-12-09T04:29:33.196Z,-4.68
2022-12-09T04:32:00.423Z,-4.72
2022-12-09T04:34:27.365Z,-4.74
2022-12-09T04:36:54.246Z,-4.74
2022-12-09T04:39:21.181Z,-4.76
2022-12-09T04:41:48.369Z,-4.77
2022-12-09T04:44:15.167Z,-4.78
2022-12-09T04:46:42.080Z,-4.78
2022-12-09T04:49:10.143Z,-4.78
2022-12-09T04:51:40.039Z,-4.81
2022-12-09T04:54:10.659Z,-4.81
2022-12-09T04:56:37.607Z,-4.83
2022-12-09T04:59:05.519Z,-4.83
2022-12-09T05:01:33.208Z,-4.84
2022-12-09T05:04:00.506Z,-4.85
2022-12-09T05:06:28.339Z,-4.87
2022-12-09T05:08:55.813Z,-4.88
2022-12-09T05:11:24.985Z,-4.91
2022-12-09T05:13:53.955Z,-4.94
2022-12-09T05:16:21.622Z,-4.95
2022-12-09T05:18:49.280Z,-4.95
2022-12-09T05:21:20.223Z,-4.97
2022-12-09T05:23:48.818Z,-4.99
2022-12-09T05:26:19.986Z,-5.02
2022-12-09T05:28:47.457Z,-5.03
2022-12-09T05:31:19.962Z,-5.06
2022-12-09T05:33:48.737Z,-5.08
2022-12-09T05:36:21.145Z,-5.11
2022-12-09T05:38:49.090Z,-5.13
2022-12-09T05:41:17.751Z,-5.15
2022-12-09T05:43:45.209Z,-5.17
2022-12-09T05:46:14.770Z,-5.18
2022-12-09T05:48:42.594Z,-5.22
2022-12-09T05:51:28.590Z,-5.25
2022-12-09T05:54:00.417Z,-5.26
2022-12-09T05:56:28.383Z,-5.28
2022-12-09T05:58:56.473Z,-5.30
2022-12-09T06:01:25.174Z,-5.31
2022-12-09T06:03:54.195Z,-5.33
2022-12-09T06:06:26.849Z,-5.34
2022-12-09T06:09:02.707Z,-5.38
2022-12-09T06:11:32.428Z,-5.39
2022-12-09T06:13:59.563Z,-5.42
2022-12-09T06:16:27.083Z,-5.42
2022-12-09T06:18:54.356Z,-5.44
2022-12-09T06:21:22.774Z,-5.44
2022-12-09T06:23:51.390Z,-5.46
2022-12-09T06:26:25.442Z,-5.47
2022-12-09T06:28:54.182Z,-5.48
2022-12-09T06:31:22.172Z,-5.49
2022-12-09T06:33:58.366Z,-5.51
2022-12-09T06:36:28.417Z,-5.53
2022-12-09T06:38:57.188Z,-5.54
2022-12-09T06:41:25.355Z,-5.54
2022-12-09T06:43:52.605Z,-5.57
2022-12-09T06:46:25.441Z,-5.58
2022-12-09T06:48:55.071Z,-5.60
2022-12-09T06:51:25.353Z,-5.62
2022-12-09T06:53:53.557Z,-5.62
2022-12-09T06:56:21.648Z,-5.64
2022-12-09T06:58:49.084Z,-5.62
2022-12-09T07:01:25.876Z,-5.62
2022-12-09T07:03:57.041Z,-5.63
2022-12-09T07:06:37.556Z,-5.64
2022-12-09T07:09:11.746Z,-5.65
2022-12-09T07:11:40.503Z,-5.65
2022-12-09T07:14:08.098Z,-5.66
2022-12-09T07:16:36.175Z,-5.68
2022-12-09T07:19:04.530Z,-5.69
2022-12-09T07:21:32.587Z,-5.71
2022-12-09T07:24:03.918Z,-5.72
2022-12-09T07:26:34.518Z,-5.73
2022-12-09T07:29:06.639Z,-5.75
2022-12-09T07:31:35.504Z,-5.77
2022-12-09T07:34:04.179Z,-5.78
2022-12-09T07:36:35.141Z,-5.78
2022-12-09T07:39:15.451Z,-5.81
2022-12-09T07:41:43.332Z,-5.83
2022-12-09T07:44:12.282Z,-5.84
2022-12-09T07:46:40.043Z,-5.86
2022-12-09T07:49:07.606Z,-5.87
2022-12-09T07:51:35.482Z,-5.88
2022-12-09T07:54:02.759Z,-5.89
2022-12-09T07:56:30.219Z,-5.89
2022-12-09T07:58:58.143Z,-5.90
2022-12-09T08:01:29.408Z,-5.89
2022-12-09T08:03:58.051Z,-5.88
2022-12-09T08:06:29.418Z,-5.89
2022-12-09T08:09:03.108Z,-5.89
2022-12-09T08:11:32.353Z,-5.89
2022-12-09T08:14:08.946Z,-5.90
2022-12-09T08:16:38.376Z,-5.90
2022-12-09T08:19:05.715Z,-5.91
2022-12-09T08:21:34.429Z,-5.91
2022-12-09T08:24:04.148Z,-5.90
2022-12-09T08:26:32.632Z,-5.89
2022-12-09T08:29:00.987Z,-5.89
2022-12-09T08:31:28.870Z,-5.87
2022-12-09T08:33:57.081Z,-5.85
2022-12-09T08:36:28.285Z,-5.83
2022-12-09T08:39:00.095Z,-5.83
2022-12-09T08:41:39.113Z,-5.82
2022-12-09T08:44:09.718Z,-5.81
2022-12-09T08:46:39.904Z,-5.79
2022-12-09T08:49:08.292Z,-5.78
2022-12-09T08:51:35.959Z,-5.77
2022-12-09T08:54:04.251Z,-5.73
2022-12-09T08:56:32.807Z,-5.71
2022-12-09T08:58:59.809Z,-5.66
2022-12-09T09:01:33.607Z,-5.65
2022-12-09T09:04:08.574Z,-5.61
2022-12-09T09:06:38.711Z,-5.56
2022-12-09T09:09:07.978Z,-5.52
2022-12-09T09:11:35.574Z,-5.47
2022-12-09T09:14:05.807Z,-5.42
2022-12-09T09:16:35.739Z,-5.36
2022-12-09T09:19:06.725Z,-5.31
2022-12-09T09:21:35.716Z,-5.22
2022-12-09T09:24:12.105Z,-5.18
2022-12-09T09:26:42.600Z,-5.11
2022-12-09T09:29:16.078Z,-5.04
2022-12-09T09:31:44.213Z,-4.98
2022-12-09T09:34:11.654Z,-4.95
2022-12-09T09:36:40.441Z,-4.88
2022-12-09T09:39:07.698Z,-4.84
2022-12-09T09:42:08.257Z,-4.82
2022-12-09T09:44:46.996Z,-4.74
2022-12-09T09:47:38.420Z,-4.67
2022-12-09T09:50:38.724Z,-4.60
2022-12-09T09:53:28.226Z,-4.51
2022-12-09T09:56:01.504Z,-4.42
2022-12-09T09:58:57.439Z,-4.35
2022-12-09T10:01:32.372Z,-4.26
2022-12-09T10:04:19.424Z,-4.19
2022-12-09T10:07:34.503Z,-4.10
2022-12-09T10:10:20.696Z,-3.99
2022-12-09T10:13:11.100Z,-3.92
2022-12-09T10:16:00.526Z,-3.86
2022-12-09T10:18:33.994Z,-3.78
2022-12-09T10:21:01.637Z,-3.70
2022-12-09T10:23:33.036Z,-3.67
2022-12-09T10:26:06.131Z,-3.62
2022-12-09T10:28:39.831Z,-3.55
2022-12-09T10:31:07.022Z,-3.48
2022-12-09T10:33:38.054Z,-3.44
2022-12-09T10:36:07.910Z,-3.38
2022-12-09T10:38:41.092Z,-3.30
2022-12-09T10:41:50.719Z,-3.24
2022-12-09T10:44:22.495Z,-3.18
2022-12-09T10:46:58.345Z,-3.15
2022-12-09T10:49:25.673Z,-3.11
2022-12-09T10:51:55.740Z,-3.07
2022-12-09T10:54:44.899Z,-3.04
2022-12-09T10:57:12.526Z,-3.01
2022-12-09T10:59:43.121Z,-2.97
2022-12-09T11:02:10.144Z,-2.94
2022-12-09T11:04:44.376Z,-2.90
2022-12-09T11:07:28.002Z,-2.87
2022-12-09T11:09:58.117Z,-2.82
2022-12-09T11:12:31.987Z,-2.78
2022-12-09T11:15:27.177Z,-2.73
2022-12-09T11:18:00.772Z,-2.67
2022-12-09T11:20:31.689Z,-2.65
2022-12-09T11:23:06.812Z,-2.61
2022-12-09T11:25:37.036Z,-2.56
2022-12-09T11:28:15.952Z,-2.52
2022-12-09T11:31:27.590Z,-2.47
2022-12-09T11:33:53.148Z,-2.43
2022-12-09T11:36:30.838Z,-2.37
2022-12-09T11:39:23.155Z,-2.34
2022-12-09T11:42:19.617Z,-2.29
2022-12-09T11:45:06.983Z,-2.21
2022-12-09T11:50:32.507Z,-2.10
2022-12-09T11:53:38.111Z,-2.06
2022-12-09T11:56:18.059Z,-2.00
2022-12-09T11:59:02.175Z,-1.95
2022-12-09T12:02:04.724Z,-1.90
2022-12-09T12:04:38.175Z,-1.83
2022-12-09T12:07:14.225Z,-1.79
2022-12-09T12:09:59.544Z,-1.69
2022-12-09T12:13:00.425Z,-1.65
2022-12-09T12:16:17.659Z,-1.58
2022-12-09T12:18:53.132Z,-1.50
2022-12-09T12:21:50.159Z,-1.42
2022-12-09T12:24:35.427Z,-1.35
2022-12-09T12:27:29.701Z,-1.28
2022-12-09T12:30:11.653Z,-1.22
2022-12-09T12:36:46.010Z,-1.12
2022-12-09T12:39:28.647Z,-1.06
2022-12-09T12:42:26.785Z,-1.01
2022-12-09T12:45:43.151Z,-0.96
2022-12-09T12:48:33.123Z,-0.92
2022-12-09T12:51:10.922Z,-0.89
2022-12-09T12:54:15.339Z,-0.86
2022-12-09T12:56:57.520Z,-0.82
2022-12-09T12:59:44.100Z,-0.77
2022-12-09T13:02:44.881Z,-0.73
2022-12-09T13:05:25.043Z,-0.67
2022-12-09T13:08:28.936Z,-0.62
2022-12-09T13:10:59.690Z,-0.49
2022-12-09T13:13:37.365Z,-0.43
2022-12-09T13:16:28.652Z,-0.34
2022-12-09T13:19:08.596Z,-0.25
2022-12-09T13:21:35.458Z,-0.21
2022-12-09T13:24:27.286Z,-0.18
2022-12-09T13:27:18.451Z,-0.18
2022-12-09T13:30:03.740Z,-0.18
2022-12-09T13:33:05.857Z,-0.15
2022-12-09T13:35:55.825Z,-0.15
2022-12-09T13:38:43.237Z,-0.16
2022-12-09T13:41:31.740Z,-0.15
2022-12-09T13:44:14.822Z,-0.15
2022-12-09T13:46:43.172Z,-0.15
2022-12-09T13:49:30.373Z,-0.15
2022-12-09T13:51:57.346Z,-0.13
2022-12-09T13:54:27.738Z,-0.13
2022-12-09T13:57:12.837Z,-0.11
2022-12-09T13:59:43.057Z,-0.10
2022-12-09T14:02:40.423Z,-0.09
2022-12-09T14:05:16.072Z,-0.09
2022-12-09T14:07:50.460Z,-0.08
2022-12-09T14:10:40.687Z,-0.07
2022-12-09T14:13:22.972Z,-0.06
2022-12-09T14:16:27.735Z,-0.06
2022-12-09T14:18:58.661Z,-0.06
2022-12-09T14:21:30.582Z,-0.05
2022-12-09T14:24:09.761Z,-0.08
2022-12-09T14:26:44.113Z,-0.05
2022-12-09T14:29:11.666Z,-0.03
2022-12-09T14:32:03.104Z,-0.03
2022-12-09T14:34:35.025Z,-0.03
2022-12-09T14:37:45.215Z,-0.05
2022-12-09T14:40:15.143Z,-0.08
2022-12-09T14:43:05.290Z,-0.11
2022-12-09T14:45:57.760Z,-0.11
2022-12-09T14:48:32.090Z,-0.15
2022-12-09T14:51:20.554Z,-0.19
2022-12-09T14:53:54.364Z,-0.20
2022-12-09T14:56:23.222Z,-0.21
2022-12-09T14:58:56.015Z,-0.24
2022-12-09T15:01:23.015Z,-0.26
2022-12-09T15:03:59.298Z,-0.28
2022-12-09T15:06:29.805Z,-0.29
2022-12-09T15:08:58.989Z,-0.30
2022-12-09T15:11:33.426Z,-0.31
2022-12-09T15:14:26.566Z,-0.32
2022-12-09T15:16:56.403Z,-0.34
2022-12-09T15:19:58.524Z,-0.37
2022-12-09T15:22:29.335Z,-0.41
2022-12-09T15:24:56.438Z,-0.44
2022-12-09T15:27:27.305Z,-0.49
2022-12-09T15:29:54.618Z,-0.55
2022-12-09T15:32:29.003Z,-0.59
2022-12-09T15:35:15.474Z,-0.62
2022-12-09T15:37:42.991Z,-0.67
2022-12-09T15:40:16.639Z,-0.69
2022-12-09T15:42:47.745Z,-0.73
2022-12-09T15:45:23.294Z,-0.77
2022-12-09T15:48:08.204Z,-0.81
2022-12-09T15:50:58.935Z,-0.86
2022-12-09T15:53:37.409Z,-0.85
2022-12-09T15:56:15.500Z,-0.83
2022-12-09T15:58:51.648Z,-0.80
2022-12-09T16:01:27.042Z,-0.82
2022-12-09T16:03:56.909Z,-0.80
2022-12-09T16:06:34.186Z,-0.79
2022-12-09T16:09:02.195Z,-0.76
2022-12-09T16:11:42.345Z,-0.75
2022-12-09T16:14:10.777Z,-0.70
2022-12-09T16:17:02.243Z,-0.70
2022-12-09T16:19:36.502Z,-0.72
2022-12-09T16:22:20.084Z,-0.71
2022-12-09T16:25:14.270Z,-0.71
2022-12-09T16:27:48.871Z,-0.76
2022-12-09T16:30:19.161Z,-0.78
2022-12-09T16:32:55.854Z,-0.83
2022-12-09T16:35:35.040Z,-0.87
2022-12-09T16:38:10.913Z,-0.90
2022-12-09T16:40:43.772Z,-0.96
2022-12-09T16:43:16.722Z,-1.01
2022-12-09T16:45:46.394Z,-1.03
2022-12-09T16:48:13.791Z,-1.04
2022-12-09T16:50:54.132Z,-1.06
2022-12-09T16:53:52.290Z,-1.11
2022-12-09T16:56:26.982Z,-1.13
2022-12-09T16:58:54.859Z,-1.17
2022-12-09T17:01:27.242Z,-1.18
2022-12-09T17:04:01.764Z,-1.19
2022-12-09T17:06:28.660Z,-1.19
2022-12-09T17:08:55.417Z,-1.26
2022-12-09T17:11:22.842Z,-1.31
2022-12-09T17:13:50.480Z,-1.37
2022-12-09T17:16:22.013Z,-1.40
2022-12-09T17:18:49.888Z,-1.41
2022-12-09T17:21:17.374Z,-1.42
2022-12-09T17:23:45.459Z,-1.44
2022-12-09T17:26:18.444Z,-1.47
2022-12-09T17:28:46.683Z,-1.46
2022-12-09T17:31:23.736Z,-1.49
2022-12-09T17:33:51.651Z,-1.50
2022-12-09T17:36:19.477Z,-1.49
2022-12-09T17:38:46.856Z,-1.50
2022-12-09T17:41:19.214Z,-1.50
2022-12-09T17:43:46.749Z,-1.48
2022-12-09T17:46:14.340Z,-1.46
2022-12-09T17:48:42.070Z,-1.42
2022-12-09T17:51:18.128Z,-1.43
2022-12-09T17:53:46.594Z,-1.39
2022-12-09T17:56:17.964Z,-1.35
2022-12-09T17:58:44.802Z,-1.37
2022-12-09T18:01:18.916Z,-1.34
2022-12-09T18:04:07.876Z,-1.33
2022-12-09T18:06:34.899Z,-1.29
2022-12-09T18:09:04.736Z,-1.30
2022-12-09T18:11:32.095Z,-1.25
2022-12-09T18:13:59.371Z,-1.23
2022-12-09T18:16:26.631Z,-1.19
2022-12-09T18:18:53.745Z,-1.14
2022-12-09T18:21:21.102Z,-1.13
2022-12-09T18:23:48.830Z,-1.09
2022-12-09T18:26:19.142Z,-1.11
2022-12-09T18:28:46.618Z,-1.12
2022-12-09T18:31:19.214Z,-1.18
2022-12-09T18:33:46.688Z,-1.20
2022-12-09T18:36:17.737Z,-1.25
2022-12-09T18:38:45.680Z,-1.32
2022-12-09T18:41:19.093Z,-1.42
2022-12-09T18:43:49.431Z,-1.49
2022-12-09T18:46:25.232Z,-1.56
2022-12-09T18:49:08.194Z,-1.66
2022-12-09T18:51:36.515Z,-1.68
2022-12-09T18:54:04.494Z,-1.71
2022-12-09T18:56:32.837Z,-1.77
2022-12-09T18:59:08.757Z,-1.78
2022-12-09T19:01:40.976Z,-1.79
2022-12-09T19:04:14.555Z,-1.82
2022-12-09T19:06:44.975Z,-1.81
2022-12-09T19:09:21.705Z,-1.84
2022-12-09T19:11:50.361Z,-1.84
2022-12-09T19:14:19.891Z,-1.85
2022-12-09T19:16:47.508Z,-1.90
2022-12-09T19:19:17.978Z,-1.96
2022-12-09T19:21:45.848Z,-2.00
2022-12-09T19:24:23.321Z,-2.06
2022-12-09T19:26:53.978Z,-2.11
2022-12-09T19:29:22.494Z,-2.13
2022-12-09T19:31:51.599Z,-2.19
2022-12-09T19:34:23.166Z,-2.23
2022-12-09T19:36:52.929Z,-2.28
2022-12-09T19:39:23.754Z,-2.29
2022-12-09T19:41:51.360Z,-2.33
2022-12-09T19:44:37.029Z,-2.36
2022-12-09T19:47:05.034Z,-2.41
2022-12-09T19:49:32.141Z,-2.41
2022-12-09T19:52:00.086Z,-2.43
2022-12-09T19:54:29.894Z,-2.41
2022-12-09T19:56:57.229Z,-2.36
2022-12-09T19:59:24.175Z,-2.31
2022-12-09T20:01:51.832Z,-2.25
2022-12-09T20:04:48.165Z,-2.18
2022-12-09T20:07:10.121Z,-2.09
2022-12-09T20:09:37.905Z,-2.04
2022-12-09T20:12:05.401Z,-2.03
2022-12-09T20:14:32.502Z,-2.05
2022-12-09T20:16:59.496Z,-2.06
2022-12-09T20:19:26.366Z,-2.09
2022-12-09T20:21:53.169Z,-2.12
2022-12-09T20:24:19.952Z,-2.13
2022-12-09T20:26:46.795Z,-2.15
2022-12-09T20:29:13.769Z,-2.16
2022-12-09T20:31:42.775Z,-2.16
2022-12-09T20:34:16.367Z,-2.15
2022-12-09T20:36:45.365Z,-2.14
2022-12-09T20:39:18.381Z,-2.13
2022-12-09T20:41:46.275Z,-2.12
2022-12-09T20:44:14.266Z,-2.10
2022-12-09T20:46:45.823Z,-2.08
2022-12-09T20:49:12.616Z,-2.07
2022-12-09T20:51:41.142Z,-2.09
2022-12-09T20:54:13.282Z,-2.10
2022-12-09T20:56:40.910Z,-2.13
2022-12-09T20:59:10.128Z,-2.17
2022-12-09T21:01:37.739Z,-2.17
2022-12-09T21:04:07.071Z,-2.17
2022-12-09T21:06:38.118Z,-2.20
2022-12-09T21:09:15.078Z,-2.20
2022-12-09T21:11:42.005Z,-2.20
2022-12-09T21:14:11.067Z,-2.20
2022-12-09T21:16:42.172Z,-2.21
2022-12-09T21:19:13.942Z,-2.18
2022-12-09T21:21:45.441Z,-2.15
2022-12-09T21:24:14.899Z,-2.13
2022-12-09T21:26:42.159Z,-2.09
2022-12-09T21:29:11.426Z,-2.08
2022-12-09T21:31:41.101Z,-2.06
2022-12-09T21:34:09.901Z,-2.04
2022-12-09T21:36:41.072Z,-2.04
2022-12-09T21:39:09.164Z,-2.07
2022-12-09T21:41:37.292Z,-2.12
2022-12-09T21:44:05.721Z,-2.16
2022-12-09T21:46:36.602Z,-2.18
2022-12-09T21:49:06.019Z,-2.23
2022-12-09T21:51:34.541Z,-2.24
2022-12-09T21:54:02.139Z,-2.32
2022-12-09T21:56:32.869Z,-2.35
2022-12-09T21:59:00.279Z,-2.39
2022-12-09T22:01:39.869Z,-2.44
2022-12-09T22:04:11.190Z,-2.46
2022-12-09T22:06:39.546Z,-2.50
2022-12-09T22:09:08.671Z,-2.57
2022-12-09T22:11:37.829Z,-2.59
2022-12-09T22:14:07.718Z,-2.63
2022-12-09T22:16:39.179Z,-2.67
2022-12-09T22:19:11.452Z,-2.68
2022-12-09T22:21:38.286Z,-2.73
2022-12-09T22:24:07.649Z,-2.79
2022-12-09T22:26:35.246Z,-2.82
2022-12-09T22:29:04.810Z,-2.87
2022-12-09T22:31:36.569Z,-2.91
2022-12-09T22:34:08.943Z,-2.96
2022-12-09T22:36:37.222Z,-2.97
2022-12-09T22:39:07.282Z,-3.02
2022-12-09T22:41:35.581Z,-3.02
2022-12-09T22:44:02.910Z,-3.05
2022-12-09T22:46:33.111Z,-3.05
2022-12-09T22:49:05.603Z,-3.08
2022-12-09T22:51:35.851Z,-3.10
2022-12-09T22:54:08.256Z,-3.12
2022-12-09T22:56:41.102Z,-3.17
2022-12-09T22:59:08.677Z,-3.17
2022-12-09T23:01:37.611Z,-3.17
2022-12-09T23:04:07.301Z,-3.20
2022-12-09T23:06:36.705Z,-3.21
2022-12-09T23:09:05.623Z,-3.20
2022-12-09T23:11:32.869Z,-3.22
2022-12-09T23:14:00.302Z,-3.23
2022-12-09T23:16:28.078Z,-3.26
2022-12-09T23:18:57.023Z,-3.30
2022-12-09T23:21:27.698Z,-3.35
2022-12-09T23:23:58.492Z,-3.37
2022-12-09T23:26:28.157Z,-3.40
2022-12-09T23:28:59.488Z,-3.44
2022-12-09T23:31:31.559Z,-3.46
2022-12-09T23:33:59.576Z,-3.48
2022-12-09T23:36:33.782Z,-3.51
2022-12-09T23:39:03.781Z,-3.53
2022-12-09T23:41:31.433Z,-3.56
2022-12-09T23:43:58.365Z,-3.58
2022-12-09T23:46:28.158Z,-3.60
2022-12-09T23:48:56.838Z,-3.62
2022-12-09T23:51:31.417Z,-3.64
2022-12-09T23:54:01.381Z,-3.68
2022-12-09T23:56:31.566Z,-3.67
2022-12-09T23:59:05.003Z,-3.68
